createdAt,value
2023-03-17T00:00:11.052Z,101106.38
2023-03-17T00:03:23.546Z,101104.19
2023-03-17T00:06:30.055Z,101106.63
2023-03-17T00:09:34.557Z,101105.50
2023-03-17T00:12:38.402Z,101104.75
2023-03-17T00:15:42.033Z,101106.84
2023-03-17T00:18:46.532Z,101089.53
2023-03-17T00:21:50.600Z,101099.03
2023-03-17T00:24:54.246Z,101098.25
2023-03-17T00:27:59.155Z,101100.91
2023-03-17T00:31:12.839Z,101095.47
2023-03-17T00:34:18.151Z,101099.31
2023-03-17T00:37:23.860Z,101104.78
2023-03-17T00:40:30.345Z,101100.06
2023-03-17T00:43:34.755Z,101093.00
2023-03-17T00:46:39.051Z,101097.38
2023-03-17T00:49:50.085Z,101101.66
2023-03-17T00:52:54.974Z,101089.47
2023-03-17T00:55:58.548Z,101079.81
2023-03-17T00:59:02.324Z,101080.69
2023-03-17T01:02:06.295Z,101082.34
2023-03-17T01:05:11.438Z,101078.50
2023-03-17T01:08:15.627Z,101084.66
2023-03-17T01:11:20.660Z,101072.59
2023-03-17T01:14:25.434Z,101081.72
2023-03-17T01:17:29.908Z,101071.38
2023-03-17T01:20:33.975Z,101069.88
2023-03-17T01:23:38.221Z,101066.72
2023-03-17T01:26:42.255Z,101066.16
2023-03-17T01:29:45.882Z,101056.38
2023-03-17T01:32:50.672Z,101057.47
2023-03-17T01:35:54.790Z,101048.44
2023-03-17T01:38:59.507Z,101058.19
2023-03-17T01:42:03.207Z,101052.59
2023-03-17T01:45:08.755Z,101050.47
2023-03-17T01:48:12.621Z,101043.28
2023-03-17T01:51:23.872Z,101043.63
2023-03-17T01:54:31.855Z,101045.81
2023-03-17T01:57:51.541Z,101042.16
2023-03-17T02:00:56.349Z,101044.84
2023-03-17T02:04:00.394Z,101039.41
2023-03-17T02:07:05.994Z,101032.16
2023-03-17T02:10:10.559Z,101030.56
2023-03-17T02:13:15.993Z,101024.19
2023-03-17T02:16:19.385Z,101023.50
2023-03-17T02:19:24.043Z,101020.75
2023-03-17T02:22:28.758Z,101019.59
2023-03-17T02:25:32.429Z,101009.31
2023-03-17T02:28:36.266Z,101006.81
2023-03-17T02:31:39.675Z,101016.03
2023-03-17T02:34:44.308Z,101008.53
2023-03-17T02:37:47.854Z,101000.69
2023-03-17T02:40:51.248Z,100999.75
2023-03-17T02:43:55.638Z,101009.47
2023-03-17T02:46:59.252Z,101002.22
2023-03-17T02:50:03.090Z,101003.28
2023-03-17T02:53:06.407Z,101005.88
2023-03-17T02:56:10.875Z,100998.91
2023-03-17T02:59:14.514Z,100996.19
2023-03-17T03:02:17.980Z,101000.63
2023-03-17T03:05:21.916Z,101004.03
2023-03-17T03:08:26.180Z,101009.28
2023-03-17T03:11:30.224Z,100990.31
2023-03-17T03:14:34.352Z,100991.59
2023-03-17T03:17:38.604Z,100997.59
2023-03-17T03:20:45.856Z,100992.84
2023-03-17T03:23:49.699Z,100988.97
2023-03-17T03:26:53.321Z,100989.59
2023-03-17T03:29:56.731Z,100981.25
2023-03-17T03:33:00.245Z,100982.38
2023-03-17T03:36:06.653Z,100974.06
2023-03-17T03:39:14.205Z,100990.41
2023-03-17T03:42:18.975Z,100973.47
2023-03-17T03:45:22.972Z,100978.53
2023-03-17T03:48:27.413Z,100979.41
2023-03-17T03:51:31.349Z,100975.66
2023-03-17T03:54:35.688Z,100986.78
2023-03-17T03:57:39.257Z,100980.63
2023-03-17T04:00:43.382Z,100976.50
2023-03-17T04:03:48.003Z,100969.72
2023-03-17T04:06:51.411Z,100959.75
2023-03-17T04:09:55.398Z,100958.25
2023-03-17T04:12:59.595Z,100963.63
2023-03-17T04:16:04.106Z,100959.34
2023-03-17T04:19:09.923Z,100952.00
2023-03-17T04:22:14.312Z,100969.06
2023-03-17T04:25:18.864Z,100958.03
2023-03-17T04:28:23.208Z,100959.63
2023-03-17T04:31:27.163Z,100961.31
2023-03-17T04:34:31.552Z,100942.59
2023-03-17T04:37:35.556Z,100939.56
2023-03-17T04:40:39.988Z,100942.97
2023-03-17T04:43:43.615Z,100933.75
2023-03-17T04:46:48.023Z,100937.66
2023-03-17T04:49:51.661Z,100928.63
2023-03-17T04:52:55.868Z,100927.78
2023-03-17T04:56:00.256Z,100928.28
2023-03-17T04:59:04.996Z,100923.88
2023-03-17T05:02:12.198Z,100912.88
2023-03-17T05:05:16.432Z,100917.47
2023-03-17T05:08:21.018Z,100908.47
2023-03-17T05:11:27.871Z,100914.06
2023-03-17T05:14:31.591Z,100912.31
2023-03-17T05:17:35.091Z,100905.19
2023-03-17T05:20:38.453Z,100862.84
2023-03-17T05:23:42.538Z,100896.97
2023-03-17T05:26:46.307Z,100901.63
2023-03-17T05:29:50.632Z,100910.72
2023-03-17T05:32:54.905Z,100903.78
2023-03-17T05:35:59.328Z,100905.63
2023-03-17T05:39:03.300Z,100904.75
2023-03-17T05:42:07.208Z,100911.25
2023-03-17T05:45:11.413Z,100913.00
2023-03-17T05:48:15.441Z,100915.78
2023-03-17T05:51:19.676Z,100913.25
2023-03-17T05:54:23.683Z,100916.16
2023-03-17T05:57:27.176Z,100913.34
2023-03-17T06:00:31.992Z,100914.09
2023-03-17T06:03:38.996Z,100912.75
2023-03-17T06:06:42.356Z,100913.00
2023-03-17T06:09:46.439Z,100904.16
2023-03-17T06:12:49.971Z,100908.41
2023-03-17T06:15:53.686Z,100911.19
2023-03-17T06:18:57.489Z,100899.47
2023-03-17T06:22:01.333Z,100865.59
2023-03-17T06:25:05.852Z,100895.31
2023-03-17T06:28:09.409Z,100904.44
2023-03-17T06:31:13.092Z,100914.94
2023-03-17T06:34:20.547Z,100904.84
2023-03-17T06:37:24.095Z,100902.88
2023-03-17T06:40:27.593Z,100890.88
2023-03-17T06:43:32.180Z,100887.25
2023-03-17T06:46:36.128Z,100885.06
2023-03-17T06:49:39.492Z,100892.56
2023-03-17T06:52:43.335Z,100886.66
2023-03-17T06:55:49.021Z,100887.09
2023-03-17T06:58:53.428Z,100898.50
2023-03-17T07:01:58.553Z,100883.22
2023-03-17T07:05:03.124Z,100891.47
2023-03-17T07:08:09.012Z,100880.63
2023-03-17T07:11:13.362Z,100887.63
2023-03-17T07:14:17.456Z,100876.16
2023-03-17T07:17:21.477Z,100880.13
2023-03-17T07:20:25.536Z,100886.63
2023-03-17T07:23:30.431Z,100876.88
2023-03-17T07:26:34.955Z,100877.03
2023-03-17T07:29:38.514Z,100878.03
2023-03-17T07:32:42.558Z,100890.78
2023-03-17T07:35:46.357Z,100877.94
2023-03-17T07:38:49.974Z,100875.69
2023-03-17T07:41:55.977Z,100875.03
2023-03-17T07:44:59.987Z,100874.94
2023-03-17T07:48:07.248Z,100876.31
2023-03-17T07:51:15.066Z,100876.88
2023-03-17T07:54:19.670Z,100876.25
2023-03-17T07:57:23.806Z,100883.09
2023-03-17T08:00:28.867Z,100874.44
2023-03-17T08:03:33.244Z,100871.19
2023-03-17T08:06:38.028Z,100875.09
2023-03-17T08:09:41.892Z,100874.00
2023-03-17T08:12:46.428Z,100870.97
2023-03-17T08:15:50.670Z,100889.75
2023-03-17T08:18:54.305Z,100880.81
2023-03-17T08:21:58.899Z,100880.63
2023-03-17T08:25:05.232Z,100878.88
2023-03-17T08:28:08.658Z,100884.66
2023-03-17T08:31:14.215Z,100884.09
2023-03-17T08:34:18.101Z,100886.50
2023-03-17T08:37:23.259Z,100885.22
2023-03-17T08:40:27.233Z,100886.06
2023-03-17T08:43:32.113Z,100889.06
2023-03-17T08:46:36.588Z,100892.50
2023-03-17T08:49:40.119Z,100897.03
2023-03-17T08:52:43.725Z,100893.09
2023-03-17T08:55:47.951Z,100890.63
2023-03-17T08:58:52.698Z,100892.69
2023-03-17T09:02:06.274Z,100895.25
2023-03-17T09:05:14.725Z,100899.53
2023-03-17T09:08:18.764Z,100904.41
2023-03-17T09:11:24.384Z,100901.03
2023-03-17T09:14:37.327Z,100904.72
2023-03-17T09:17:46.690Z,100899.22
2023-03-17T09:20:50.861Z,100897.38
2023-03-17T09:23:55.018Z,100907.59
2023-03-17T09:27:00.844Z,100893.34
2023-03-17T09:30:05.989Z,100897.63
2023-03-17T09:33:16.495Z,100903.84
2023-03-17T09:36:21.246Z,100911.19
2023-03-17T09:39:25.281Z,100908.03
2023-03-17T09:42:34.246Z,100911.53
2023-03-17T09:45:41.671Z,100911.03
2023-03-17T09:49:01.172Z,100911.25
2023-03-17T09:52:05.288Z,100915.41
2023-03-17T09:55:13.923Z,100917.94
2023-03-17T09:58:22.832Z,100913.88
2023-03-17T10:01:27.328Z,100922.69
2023-03-17T10:04:31.866Z,100919.66
2023-03-17T10:07:42.770Z,100924.88
2023-03-17T10:10:52.968Z,100919.09
2023-03-17T10:14:06.384Z,100921.56
2023-03-17T10:17:24.317Z,100925.94
2023-03-17T10:20:37.244Z,100919.84
2023-03-17T10:23:41.412Z,100914.88
2023-03-17T10:26:51.154Z,100920.28
2023-03-17T10:29:55.125Z,100914.56
2023-03-17T10:33:01.018Z,100919.88
2023-03-17T10:36:11.701Z,100918.00
2023-03-17T10:39:18.543Z,100923.13
2023-03-17T10:42:24.656Z,100918.72
2023-03-17T10:45:30.899Z,100922.59
2023-03-17T10:48:39.373Z,100919.00
2023-03-17T10:51:47.179Z,100916.97
2023-03-17T10:54:54.219Z,100922.09
2023-03-17T10:58:08.996Z,100917.09
2023-03-17T11:01:22.125Z,100922.94
2023-03-17T11:04:33.182Z,100932.59
2023-03-17T11:07:39.521Z,100929.19
2023-03-17T11:10:43.968Z,100939.91
2023-03-17T11:13:48.009Z,100943.66
2023-03-17T11:17:00.044Z,100936.91
2023-03-17T11:20:16.248Z,100930.09
2023-03-17T11:23:24.473Z,100918.91
2023-03-17T11:26:31.271Z,100911.00
2023-03-17T11:29:50.231Z,100908.47
2023-03-17T11:33:02.538Z,100903.03
2023-03-17T11:36:10.145Z,100902.88
2023-03-17T11:39:18.010Z,100899.31
2023-03-17T11:42:42.250Z,100894.25
2023-03-17T11:45:51.520Z,100887.00
2023-03-17T11:49:04.755Z,100895.56
2023-03-17T11:52:18.224Z,100891.34
2023-03-17T11:55:46.478Z,100883.41
2023-03-17T11:59:07.812Z,100882.78
2023-03-17T12:02:30.644Z,100889.22
2023-03-17T12:05:35.201Z,100879.13
2023-03-17T12:08:46.672Z,100879.25
2023-03-17T12:11:51.528Z,100885.09
2023-03-17T12:14:57.562Z,100881.97
2023-03-17T12:18:13.056Z,100872.06
2023-03-17T12:21:33.625Z,100880.13
2023-03-17T12:24:44.394Z,100870.91
2023-03-17T12:27:54.014Z,100863.28
2023-03-17T12:31:08.917Z,100875.44
2023-03-17T12:34:51.850Z,100868.47
2023-03-17T12:38:16.832Z,100867.53
2023-03-17T12:41:23.468Z,100861.25
2023-03-17T12:44:35.202Z,100866.31
2023-03-17T12:47:57.575Z,100864.34
2023-03-17T12:51:10.717Z,100864.47
2023-03-17T12:54:22.481Z,100865.75
2023-03-17T12:57:31.603Z,100858.72
2023-03-17T13:00:49.903Z,100863.66
2023-03-17T13:03:56.960Z,100856.03
2023-03-17T13:07:20.952Z,100855.34
2023-03-17T13:10:44.138Z,100856.72
2023-03-17T13:13:59.882Z,100855.78
2023-03-17T13:17:28.438Z,100859.88
2023-03-17T13:20:40.025Z,100859.88
2023-03-17T13:23:46.378Z,100860.41
2023-03-17T13:26:52.060Z,100852.53
2023-03-17T13:29:58.083Z,100851.50
2023-03-17T13:33:11.271Z,100854.69
2023-03-17T13:36:36.733Z,100854.72
2023-03-17T13:39:59.061Z,100851.09
2023-03-17T13:43:21.782Z,100849.50
2023-03-17T13:46:34.861Z,100848.38
2023-03-17T13:49:38.522Z,100853.66
2023-03-17T13:52:44.364Z,100851.06
2023-03-17T13:56:27.098Z,100841.47
2023-03-17T13:59:55.213Z,100848.53
2023-03-17T14:03:05.081Z,100843.91
2023-03-17T14:06:10.050Z,100847.03
2023-03-17T14:09:20.067Z,100851.72
2023-03-17T14:12:39.444Z,100850.97
2023-03-17T14:16:04.321Z,100851.31
2023-03-17T14:19:16.940Z,100853.66
2023-03-17T14:22:22.770Z,100851.72
2023-03-17T14:25:30.195Z,100860.44
2023-03-17T14:28:35.693Z,100857.69
2023-03-17T14:31:39.613Z,100863.38
2023-03-17T14:34:44.755Z,100850.81
2023-03-17T14:37:48.703Z,100841.06
2023-03-17T14:41:01.138Z,100844.16
2023-03-17T14:44:04.645Z,100845.91
2023-03-17T14:47:14.570Z,100847.47
2023-03-17T14:50:22.508Z,100842.72
2023-03-17T14:53:27.626Z,100835.63
2023-03-17T14:56:36.288Z,100838.63
2023-03-17T14:59:41.901Z,100840.94
2023-03-17T15:02:55.154Z,100851.34
2023-03-17T15:06:09.061Z,100843.34
2023-03-17T15:09:51.354Z,100850.16
2023-03-17T15:13:03.119Z,100852.25
2023-03-17T15:16:15.319Z,100855.84
2023-03-17T15:19:22.172Z,100854.13
2023-03-17T15:22:33.968Z,100857.09
2023-03-17T15:25:39.839Z,100854.16
2023-03-17T15:28:43.896Z,100854.41
2023-03-17T15:31:48.014Z,100855.78
2023-03-17T15:34:53.822Z,100855.59
2023-03-17T15:37:58.101Z,100855.44
2023-03-17T15:41:02.031Z,100863.13
2023-03-17T15:44:06.154Z,100867.41
2023-03-17T15:47:13.510Z,100861.50
2023-03-17T15:50:29.653Z,100867.97
2023-03-17T15:53:34.353Z,100872.34
2023-03-17T15:56:39.501Z,100870.66
2023-03-17T15:59:43.557Z,100873.72
2023-03-17T16:02:49.064Z,100879.53
2023-03-17T16:05:53.354Z,100882.53
2023-03-17T16:08:57.381Z,100878.56
2023-03-17T16:12:01.813Z,100876.72
2023-03-17T16:15:20.165Z,100872.47
2023-03-17T16:18:32.169Z,100873.53
2023-03-17T16:21:35.580Z,100867.78
2023-03-17T16:24:39.766Z,100871.19
2023-03-17T16:27:44.144Z,100865.84
2023-03-17T16:30:49.235Z,100867.53
2023-03-17T16:33:54.443Z,100869.75
2023-03-17T16:36:58.798Z,100868.03
2023-03-17T16:40:03.288Z,100866.84
2023-03-17T16:43:19.140Z,100867.88
2023-03-17T16:46:29.009Z,100870.25
2023-03-17T16:52:47.769Z,100868.81
2023-03-17T16:55:55.371Z,100870.53
2023-03-17T16:58:59.412Z,100868.84
2023-03-17T17:02:03.458Z,100871.06
2023-03-17T17:05:14.100Z,100856.09
2023-03-17T17:08:18.139Z,100858.94
2023-03-17T17:11:22.215Z,100861.41
2023-03-17T17:14:25.917Z,100852.56
2023-03-17T17:17:29.613Z,100851.03
2023-03-17T17:20:35.329Z,100854.59
2023-03-17T17:23:39.400Z,100846.72
2023-03-17T17:26:43.552Z,100852.22
2023-03-17T17:29:47.603Z,100844.09
2023-03-17T17:32:51.342Z,100849.19
2023-03-17T17:35:55.187Z,100854.56
2023-03-17T17:38:59.165Z,100851.16
2023-03-17T17:42:03.102Z,100838.75
2023-03-17T17:45:07.364Z,100843.66
2023-03-17T17:48:14.277Z,100847.56
2023-03-17T17:51:18.654Z,100840.28
2023-03-17T17:54:22.647Z,100847.03
2023-03-17T17:57:26.684Z,100843.19
2023-03-17T18:00:31.528Z,100844.28
2023-03-17T18:03:35.608Z,100838.59
2023-03-17T18:06:39.760Z,100837.91
2023-03-17T18:09:43.263Z,100838.91
2023-03-17T18:12:47.204Z,100834.94
2023-03-17T18:15:51.275Z,100832.59
2023-03-17T18:18:56.669Z,100836.63
2023-03-17T18:22:02.189Z,100837.47
2023-03-17T18:25:09.323Z,100833.00
2023-03-17T18:28:14.202Z,100844.53
2023-03-17T18:31:30.740Z,100837.06
2023-03-17T18:34:52.951Z,100836.03
2023-03-17T18:37:58.123Z,100840.13
2023-03-17T18:41:02.709Z,100848.47
2023-03-17T18:44:08.323Z,100844.69
2023-03-17T18:47:13.232Z,100843.34
2023-03-17T18:50:18.445Z,100848.59
2023-03-17T18:53:23.203Z,100841.13
2023-03-17T18:56:30.045Z,100834.19
2023-03-17T18:59:34.136Z,100834.50
2023-03-17T19:02:38.830Z,100837.22
2023-03-17T19:05:43.090Z,100827.88
2023-03-17T19:08:47.398Z,100823.06
2023-03-17T19:11:51.513Z,100834.66
2023-03-17T19:14:55.888Z,100830.56
2023-03-17T19:17:59.927Z,100826.03
2023-03-17T19:21:04.271Z,100821.38
2023-03-17T19:24:11.854Z,100831.28
2023-03-17T19:27:16.337Z,100829.97
2023-03-17T19:30:20.973Z,100832.56
2023-03-17T19:33:24.552Z,100833.78
2023-03-17T19:36:28.157Z,100830.00
2023-03-17T19:39:32.997Z,100836.03
2023-03-17T19:42:37.297Z,100841.25
2023-03-17T19:45:41.649Z,100838.56
2023-03-17T19:48:45.789Z,100842.28
2023-03-17T19:51:50.210Z,100855.88
2023-03-17T19:54:54.193Z,100854.91
2023-03-17T19:57:58.193Z,100851.53
2023-03-17T20:01:02.242Z,100861.44
2023-03-17T20:04:07.670Z,100862.13
2023-03-17T20:07:12.216Z,100790.22
2023-03-17T20:10:16.806Z,100857.38
2023-03-17T20:13:22.107Z,100852.66
2023-03-17T20:16:26.185Z,100850.78
2023-03-17T20:19:30.313Z,100856.41
2023-03-17T20:22:34.399Z,100857.03
2023-03-17T20:25:38.739Z,100849.19
2023-03-17T20:28:42.573Z,100843.97
2023-03-17T20:31:46.916Z,100848.34
2023-03-17T20:34:51.659Z,100844.16
2023-03-17T20:37:58.136Z,100841.41
2023-03-17T20:41:15.354Z,100839.91
2023-03-17T20:44:20.201Z,100848.25
2023-03-17T20:47:24.567Z,100847.19
2023-03-17T20:50:28.888Z,100849.59
2023-03-17T20:53:33.539Z,100842.31
2023-03-17T20:56:38.249Z,100846.84
2023-03-17T20:59:42.497Z,100840.34
2023-03-17T21:02:46.995Z,100839.19
2023-03-17T21:05:51.254Z,100839.28
2023-03-17T21:08:55.906Z,100839.81
2023-03-17T21:11:59.833Z,100832.72
2023-03-17T21:15:04.389Z,100839.09
2023-03-17T21:18:08.329Z,100839.09
2023-03-17T21:21:12.620Z,100845.84
2023-03-17T21:24:27.522Z,100842.31
2023-03-17T21:27:31.489Z,100840.16
2023-03-17T21:30:35.937Z,100842.28
2023-03-17T21:33:40.107Z,100843.97
2023-03-17T21:36:44.148Z,100836.44
2023-03-17T21:39:48.471Z,100850.91
2023-03-17T21:42:52.539Z,100849.34
2023-03-17T21:45:57.034Z,100842.66
2023-03-17T21:49:01.252Z,100839.63
2023-03-17T21:52:05.618Z,100848.13
2023-03-17T21:55:10.275Z,100847.97
2023-03-17T21:58:15.360Z,100839.03
2023-03-17T22:01:19.796Z,100844.50
2023-03-17T22:04:23.717Z,100850.31
2023-03-17T22:07:28.892Z,100851.09
2023-03-17T22:10:33.056Z,100830.50
2023-03-17T22:13:37.961Z,100836.81
2023-03-17T22:16:41.735Z,100851.03
2023-03-17T22:19:45.262Z,100853.56
2023-03-17T22:22:49.094Z,100842.47
2023-03-17T22:25:53.493Z,100834.78
2023-03-17T22:28:56.964Z,100835.84
2023-03-17T22:32:00.732Z,100835.66
2023-03-17T22:35:05.328Z,100844.09
2023-03-17T22:38:13.877Z,100844.41
2023-03-17T22:41:19.500Z,100848.22
2023-03-17T22:44:23.563Z,100842.81
2023-03-17T22:47:27.572Z,100841.41
2023-03-17T22:50:31.931Z,100842.28
2023-03-17T22:53:39.398Z,100849.38
2023-03-17T22:56:43.053Z,100854.25
2023-03-17T22:59:47.108Z,100850.16
2023-03-17T23:02:51.395Z,100850.44
2023-03-17T23:05:57.822Z,100845.69
2023-03-17T23:09:01.426Z,100848.28
2023-03-17T23:12:05.844Z,100848.19
2023-03-17T23:15:10.884Z,100850.56
2023-03-17T23:18:14.959Z,100843.28
2023-03-17T23:21:28.500Z,100851.66
2023-03-17T23:24:33.040Z,100854.78
2023-03-17T23:27:37.595Z,100852.31
2023-03-17T23:30:42.311Z,100858.09
2023-03-17T23:33:47.308Z,100855.59
2023-03-17T23:36:51.499Z,100854.47
2023-03-17T23:39:55.829Z,100857.41
2023-03-17T23:42:59.811Z,100855.69
2023-03-17T23:46:05.113Z,100860.97
2023-03-17T23:49:09.272Z,100858.28
2023-03-17T23:52:13.362Z,100867.94
2023-03-17T23:55:18.243Z,100867.66
2023-03-17T23:58:22.835Z,100865.47
